createdAt,value
2023-05-10T00:00:14.624Z,2.00
2023-05-10T00:02:42.725Z,1.77
2023-05-10T00:05:10.372Z,1.23
2023-05-10T00:07:37.696Z,2.10
2023-05-10T00:10:05.821Z,1.25
2023-05-10T00:12:33.284Z,1.23
2023-05-10T00:15:00.691Z,1.37
2023-05-10T00:17:28.558Z,1.98
2023-05-10T00:19:55.963Z,1.35
2023-05-10T00:22:23.413Z,2.50
2023-05-10T00:24:51.067Z,1.33
2023-05-10T00:27:18.475Z,1.12
2023-05-10T00:29:45.924Z,1.70
2023-05-10T00:32:14.928Z,1.55
2023-05-10T00:34:42.526Z,1.20
2023-05-10T00:37:09.982Z,1.52
2023-05-10T00:39:37.657Z,0.98
2023-05-10T00:42:05.536Z,1.35
2023-05-10T00:44:33.228Z,1.20
2023-05-10T00:47:00.955Z,1.05
2023-05-10T00:49:28.615Z,2.03
2023-05-10T00:51:56.025Z,1.73
2023-05-10T00:54:23.690Z,2.28
2023-05-10T00:56:52.717Z,1.95
2023-05-10T00:59:20.360Z,1.33
2023-05-10T01:01:48.448Z,1.35
2023-05-10T01:04:16.405Z,1.55
2023-05-10T01:06:44.033Z,1.23
2023-05-10T01:09:12.751Z,1.45
2023-05-10T01:11:41.106Z,1.95
2023-05-10T01:14:08.806Z,2.08
2023-05-10T01:16:40.285Z,1.58
2023-05-10T01:19:32.183Z,2.08
2023-05-10T01:22:07.634Z,1.95
2023-05-10T01:27:14.601Z,1.95
2023-05-10T01:30:01.406Z,1.58
2023-05-10T01:32:40.289Z,1.80
2023-05-10T01:35:12.031Z,1.58
2023-05-10T01:37:58.091Z,1.98
2023-05-10T01:43:09.572Z,1.70
2023-05-10T01:46:06.177Z,1.83
2023-05-10T01:48:34.055Z,2.30
2023-05-10T01:51:01.775Z,2.08
2023-05-10T01:53:29.345Z,2.28
2023-05-10T01:55:57.557Z,1.85
2023-05-10T01:58:29.485Z,1.87
2023-05-10T02:00:59.307Z,2.05
2023-05-10T02:03:28.317Z,3.00
2023-05-10T02:05:57.079Z,1.55
2023-05-10T02:08:25.145Z,2.25
2023-05-10T02:10:55.595Z,2.37
2023-05-10T02:13:24.751Z,2.37
2023-05-10T02:15:52.462Z,1.85
2023-05-10T02:18:20.446Z,2.55
2023-05-10T02:20:48.318Z,1.45
2023-05-10T02:23:18.007Z,2.30
2023-05-10T02:25:46.016Z,2.30
2023-05-10T02:28:15.507Z,2.00
2023-05-10T02:30:43.587Z,2.05
2023-05-10T02:33:12.320Z,2.03
2023-05-10T02:35:40.024Z,1.75
2023-05-10T02:38:09.836Z,1.95
2023-05-10T02:40:37.691Z,1.40
2023-05-10T02:43:05.290Z,1.65
2023-05-10T02:45:33.755Z,1.55
2023-05-10T02:48:01.610Z,2.05
2023-05-10T02:50:29.736Z,2.25
2023-05-10T02:53:00.953Z,2.25
2023-05-10T02:55:38.111Z,1.90
2023-05-10T02:58:05.884Z,2.05
2023-05-10T03:00:33.890Z,2.03
2023-05-10T03:03:01.435Z,1.55
2023-05-10T03:05:29.258Z,1.65
2023-05-10T03:07:57.945Z,2.12
2023-05-10T03:10:30.895Z,3.17
2023-05-10T03:13:01.504Z,2.22
2023-05-10T03:15:47.657Z,1.40
2023-05-10T03:18:43.290Z,2.30
2023-05-10T03:21:13.434Z,2.03
2023-05-10T03:23:47.529Z,2.33
2023-05-10T03:26:21.396Z,1.65
2023-05-10T03:28:49.803Z,1.67
2023-05-10T03:31:18.411Z,1.67
2023-05-10T03:33:53.271Z,1.48
2023-05-10T03:36:22.014Z,1.80
2023-05-10T03:38:49.441Z,2.15
2023-05-10T03:41:16.874Z,2.12
2023-05-10T03:43:44.610Z,2.10
2023-05-10T03:46:12.068Z,1.92
2023-05-10T03:48:39.546Z,2.67
2023-05-10T03:51:07.663Z,2.00
2023-05-10T03:53:35.038Z,2.12
2023-05-10T03:56:02.496Z,1.35
2023-05-10T03:58:30.173Z,2.20
2023-05-10T04:00:57.618Z,1.33
2023-05-10T04:03:26.914Z,1.50
2023-05-10T04:06:04.020Z,1.80
2023-05-10T04:08:32.498Z,1.65
2023-05-10T04:11:09.930Z,1.87
2023-05-10T04:13:38.272Z,2.67
2023-05-10T04:16:06.248Z,1.75
2023-05-10T04:18:33.807Z,2.22
2023-05-10T04:21:01.640Z,2.17
2023-05-10T04:23:29.085Z,2.47
2023-05-10T04:26:01.582Z,2.75
2023-05-10T04:28:29.421Z,3.25
2023-05-10T04:31:10.536Z,1.50
2023-05-10T04:33:38.478Z,1.77
2023-05-10T04:36:06.316Z,2.30
2023-05-10T04:38:33.702Z,2.40
2023-05-10T04:41:09.301Z,2.00
2023-05-10T04:46:05.310Z,1.95
2023-05-10T04:48:32.834Z,2.42
2023-05-10T04:51:00.646Z,1.25
2023-05-10T04:53:28.356Z,1.85
2023-05-10T04:55:55.752Z,1.95
2023-05-10T04:58:23.133Z,2.25
2023-05-10T05:00:50.974Z,2.08
2023-05-10T05:03:18.440Z,2.35
2023-05-10T05:05:46.029Z,1.55
2023-05-10T05:08:14.251Z,2.50
2023-05-10T05:10:41.641Z,2.20
2023-05-10T05:13:09.045Z,2.25
2023-05-10T05:15:36.735Z,2.03
2023-05-10T05:18:04.268Z,2.92
2023-05-10T05:20:34.313Z,2.47
2023-05-10T05:23:02.675Z,2.35
2023-05-10T05:25:30.141Z,2.55
2023-05-10T05:27:57.583Z,2.33
2023-05-10T05:30:25.302Z,1.87
2023-05-10T05:32:53.461Z,2.62
2023-05-10T05:35:20.918Z,2.60
2023-05-10T05:37:48.651Z,1.90
2023-05-10T05:40:16.125Z,2.33
2023-05-10T05:42:43.565Z,2.40
2023-05-10T05:45:14.025Z,2.10
2023-05-10T05:47:41.861Z,2.05
2023-05-10T05:50:09.835Z,2.50
2023-05-10T05:52:37.544Z,2.53
2023-05-10T05:55:05.408Z,1.85
2023-05-10T05:57:32.774Z,1.65
2023-05-10T06:00:00.588Z,1.98
2023-05-10T06:02:28.116Z,2.42
2023-05-10T06:04:55.978Z,0.77
2023-05-10T06:07:23.405Z,2.53
2023-05-10T06:09:51.033Z,2.50
2023-05-10T06:12:18.717Z,2.37
2023-05-10T06:14:46.072Z,2.08
2023-05-10T06:17:13.561Z,1.85
2023-05-10T06:19:41.199Z,1.80
2023-05-10T06:22:08.871Z,3.28
2023-05-10T06:24:36.299Z,2.25
2023-05-10T06:27:05.101Z,1.75
2023-05-10T06:29:32.487Z,3.05
2023-05-10T06:32:00.000Z,2.25
2023-05-10T06:34:27.661Z,2.40
2023-05-10T06:36:55.071Z,3.33
2023-05-10T06:39:22.455Z,2.53
2023-05-10T06:41:50.268Z,2.85
2023-05-10T06:44:17.623Z,2.45
2023-05-10T06:46:45.065Z,2.72
2023-05-10T06:49:12.945Z,2.58
2023-05-10T06:51:41.162Z,2.75
2023-05-10T06:54:08.532Z,2.17
2023-05-10T06:56:36.386Z,2.58
2023-05-10T06:59:04.055Z,2.60
2023-05-10T07:01:31.529Z,3.10
2023-05-10T07:03:59.192Z,2.60
2023-05-10T07:06:33.424Z,3.53
2023-05-10T07:09:02.080Z,2.08
2023-05-10T07:11:29.722Z,2.97
2023-05-10T07:13:57.127Z,3.22
2023-05-10T07:16:24.788Z,1.92
2023-05-10T07:18:52.243Z,2.00
2023-05-10T07:21:19.654Z,2.58
2023-05-10T07:23:47.347Z,2.05
2023-05-10T07:26:15.889Z,2.78
2023-05-10T07:28:43.335Z,3.03
2023-05-10T07:31:11.011Z,1.92
2023-05-10T07:33:38.537Z,1.85
2023-05-10T07:36:05.977Z,1.90
2023-05-10T07:38:33.797Z,2.15
2023-05-10T07:41:01.221Z,2.47
2023-05-10T07:43:28.836Z,2.65
2023-05-10T07:45:58.583Z,1.87
2023-05-10T07:48:26.107Z,2.58
2023-05-10T07:50:53.479Z,1.92
2023-05-10T07:53:21.765Z,3.10
2023-05-10T07:55:52.962Z,1.98
2023-05-10T07:58:20.645Z,2.28
2023-05-10T08:00:48.190Z,1.70
2023-05-10T08:03:16.268Z,2.10
2023-05-10T08:05:43.793Z,1.95
2023-05-10T08:08:11.236Z,2.00
2023-05-10T08:10:38.941Z,1.85
2023-05-10T08:13:07.097Z,1.55
2023-05-10T08:15:34.609Z,2.42
2023-05-10T08:18:02.368Z,1.35
2023-05-10T08:20:29.861Z,1.67
2023-05-10T08:22:57.326Z,1.77
2023-05-10T08:25:25.160Z,1.67
2023-05-10T08:27:52.513Z,2.05
2023-05-10T08:30:19.990Z,3.22
2023-05-10T08:32:47.798Z,1.50
2023-05-10T08:35:16.713Z,2.05
2023-05-10T08:37:44.289Z,2.80
2023-05-10T08:40:12.906Z,2.28
2023-05-10T08:42:41.695Z,2.28
2023-05-10T08:45:09.873Z,2.70
2023-05-10T08:47:39.151Z,2.78
2023-05-10T08:50:08.053Z,1.80
2023-05-10T08:52:37.757Z,1.90
2023-05-10T08:55:05.715Z,1.77
2023-05-10T08:57:33.068Z,1.95
2023-05-10T09:00:01.809Z,1.83
2023-05-10T09:02:30.197Z,2.35
2023-05-10T09:04:57.831Z,2.22
2023-05-10T09:07:25.927Z,2.35
2023-05-10T09:09:54.405Z,1.80
2023-05-10T09:12:21.833Z,1.42
2023-05-10T09:14:49.801Z,2.47
2023-05-10T09:17:17.696Z,2.12
2023-05-10T09:19:46.356Z,1.52
2023-05-10T09:22:13.857Z,1.83
2023-05-10T09:24:46.152Z,2.75
2023-05-10T09:27:13.628Z,2.35
2023-05-10T09:29:43.098Z,1.87
2023-05-10T09:32:10.497Z,1.87
2023-05-10T09:34:40.965Z,2.12
2023-05-10T09:37:09.253Z,2.28
2023-05-10T09:39:37.980Z,1.85
2023-05-10T09:42:07.368Z,2.05
2023-05-10T09:44:35.153Z,2.30
2023-05-10T09:47:03.161Z,2.08
2023-05-10T09:49:31.138Z,1.62
2023-05-10T09:52:06.277Z,1.75
2023-05-10T09:54:34.919Z,2.30
2023-05-10T09:57:03.004Z,2.37
2023-05-10T09:59:30.593Z,2.22
2023-05-10T10:02:01.326Z,2.12
2023-05-10T10:04:29.622Z,1.80
2023-05-10T10:07:04.605Z,2.00
2023-05-10T10:09:33.290Z,2.22
2023-05-10T10:12:01.568Z,2.20
2023-05-10T10:14:29.924Z,2.22
2023-05-10T10:17:07.703Z,1.83
2023-05-10T10:19:36.864Z,2.00
2023-05-10T10:22:05.247Z,1.80
2023-05-10T10:24:32.944Z,2.55
2023-05-10T10:27:45.387Z,2.08
2023-05-10T10:30:31.628Z,1.80
2023-05-10T10:33:29.656Z,2.45
2023-05-10T10:36:00.241Z,2.12
2023-05-10T10:39:00.455Z,1.90
2023-05-10T10:41:37.151Z,1.70
2023-05-10T10:44:23.318Z,2.00
2023-05-10T10:47:30.837Z,1.52
2023-05-10T10:50:01.677Z,1.80
2023-05-10T10:52:34.406Z,2.25
2023-05-10T10:55:05.132Z,1.62
2023-05-10T10:57:43.621Z,1.65
2023-05-10T11:03:10.219Z,2.03
2023-05-10T11:05:50.426Z,1.70
2023-05-10T11:08:27.136Z,1.65
2023-05-10T11:11:00.868Z,1.75
2023-05-10T11:13:33.819Z,1.15
2023-05-10T11:16:12.343Z,1.85
2023-05-10T11:18:40.270Z,1.45
2023-05-10T11:21:11.723Z,1.87
2023-05-10T11:23:48.488Z,1.40
2023-05-10T11:26:16.438Z,1.20
2023-05-10T11:28:44.946Z,1.33
2023-05-10T11:31:17.982Z,1.30
2023-05-10T11:33:53.727Z,1.30
2023-05-10T11:36:26.226Z,1.62
2023-05-10T11:38:54.622Z,1.90
2023-05-10T11:41:23.467Z,1.35
2023-05-10T11:43:52.329Z,1.73
2023-05-10T11:46:25.464Z,1.73
2023-05-10T11:48:55.078Z,1.58
2023-05-10T11:51:24.313Z,1.58
2023-05-10T11:53:56.760Z,0.93
2023-05-10T11:56:24.782Z,0.95
2023-05-10T11:58:57.844Z,1.62
2023-05-10T12:01:27.299Z,1.15
2023-05-10T12:04:00.020Z,1.30
2023-05-10T12:06:29.900Z,1.27
2023-05-10T12:08:57.866Z,1.40
2023-05-10T12:11:26.828Z,1.40
2023-05-10T12:13:55.014Z,1.42
2023-05-10T12:16:24.776Z,1.37
2023-05-10T12:18:53.437Z,1.23
2023-05-10T12:21:22.143Z,1.42
2023-05-10T12:23:52.284Z,1.23
2023-05-10T12:26:22.329Z,1.42
2023-05-10T12:28:49.956Z,1.33
2023-05-10T12:31:17.432Z,1.50
2023-05-10T12:33:45.628Z,1.55
2023-05-10T12:36:15.396Z,1.30
2023-05-10T12:38:44.671Z,1.55
2023-05-10T12:41:13.570Z,1.60
2023-05-10T12:43:41.769Z,1.83
2023-05-10T12:46:10.476Z,1.58
2023-05-10T12:48:38.954Z,1.33
2023-05-10T12:51:09.702Z,1.67
2023-05-10T12:53:37.683Z,1.58
2023-05-10T12:56:05.485Z,1.12
2023-05-10T12:58:36.011Z,1.50
2023-05-10T13:01:04.212Z,1.20
2023-05-10T13:03:31.659Z,1.87
2023-05-10T13:05:59.316Z,1.15
2023-05-10T13:08:26.935Z,1.02
2023-05-10T13:10:54.270Z,1.67
2023-05-10T13:13:21.899Z,1.42
2023-05-10T13:15:49.263Z,1.02
2023-05-10T13:18:16.816Z,1.27
2023-05-10T13:20:45.292Z,0.95
2023-05-10T13:23:12.691Z,1.25
2023-05-10T13:25:40.235Z,1.67
2023-05-10T13:28:07.998Z,0.95
2023-05-10T13:30:35.313Z,1.12
2023-05-10T13:33:02.818Z,1.35
2023-05-10T13:35:30.827Z,1.15
2023-05-10T13:37:58.647Z,1.15
2023-05-10T13:40:26.071Z,0.82
2023-05-10T13:42:54.006Z,1.12
2023-05-10T13:45:21.845Z,1.35
2023-05-10T13:47:49.257Z,1.17
2023-05-10T13:50:17.879Z,1.37
2023-05-10T13:52:45.456Z,1.40
2023-05-10T13:56:10.305Z,1.77
2023-05-10T13:58:58.088Z,1.12
2023-05-10T14:01:25.804Z,0.95
2023-05-10T14:03:53.580Z,1.12
2023-05-10T14:06:21.418Z,1.10
2023-05-10T14:08:49.070Z,1.40
2023-05-10T14:11:16.726Z,1.25
2023-05-10T14:13:44.087Z,1.80
2023-05-10T14:16:11.695Z,1.48
2023-05-10T14:18:39.370Z,1.52
2023-05-10T14:21:07.172Z,1.60
2023-05-10T14:23:34.523Z,1.95
2023-05-10T14:26:02.421Z,1.58
2023-05-10T14:28:30.244Z,1.12
2023-05-10T14:30:58.129Z,1.60
2023-05-10T14:33:26.041Z,1.45
2023-05-10T14:35:53.418Z,1.50
2023-05-10T14:38:20.905Z,1.42
2023-05-10T14:40:48.553Z,1.17
2023-05-10T14:43:16.029Z,1.08
2023-05-10T14:45:43.430Z,1.40
2023-05-10T14:48:16.195Z,0.85
2023-05-10T14:50:43.579Z,1.55
2023-05-10T14:53:36.199Z,0.80
2023-05-10T14:56:03.985Z,1.37
2023-05-10T14:58:33.993Z,1.42
2023-05-10T15:01:01.821Z,1.00
2023-05-10T15:03:29.961Z,1.17
2023-05-10T15:05:58.902Z,0.93
2023-05-10T15:08:26.351Z,1.37
2023-05-10T15:10:56.377Z,0.70
2023-05-10T15:13:24.056Z,1.23
2023-05-10T15:15:51.588Z,1.15
2023-05-10T15:18:19.089Z,1.48
2023-05-10T15:20:46.690Z,0.73
2023-05-10T15:23:14.237Z,0.85
2023-05-10T15:25:41.756Z,1.30
2023-05-10T15:28:09.386Z,0.85
2023-05-10T15:30:36.797Z,0.82
2023-05-10T15:33:04.234Z,0.88
2023-05-10T15:35:32.632Z,1.00
2023-05-10T15:37:59.960Z,0.80
2023-05-10T15:40:27.373Z,1.70
2023-05-10T15:42:55.136Z,1.23
2023-05-10T15:45:22.718Z,1.15
2023-05-10T15:47:50.169Z,0.90
2023-05-10T15:50:17.882Z,0.98
2023-05-10T15:52:45.345Z,1.05
2023-05-10T15:55:13.450Z,1.08
2023-05-10T15:57:42.560Z,0.93
2023-05-10T16:00:11.309Z,1.08
2023-05-10T16:02:40.703Z,1.67
2023-05-10T16:05:09.708Z,0.95
2023-05-10T16:07:37.162Z,0.90
2023-05-10T16:10:06.592Z,0.62
2023-05-10T16:12:34.676Z,1.15
2023-05-10T16:15:02.124Z,0.93
2023-05-10T16:17:29.593Z,0.98
2023-05-10T16:19:57.379Z,0.90
2023-05-10T16:22:27.315Z,0.95
2023-05-10T16:24:54.778Z,1.48
2023-05-10T16:27:22.508Z,1.52
2023-05-10T16:29:50.065Z,1.00
2023-05-10T16:32:17.552Z,1.30
2023-05-10T16:34:45.527Z,0.88
2023-05-10T16:37:12.988Z,0.98
2023-05-10T16:39:40.462Z,1.40
2023-05-10T16:42:08.172Z,1.27
2023-05-10T16:44:36.472Z,1.02
2023-05-10T16:47:03.942Z,1.00
2023-05-10T16:49:31.664Z,1.27
2023-05-10T16:51:59.923Z,0.80
2023-05-10T16:54:28.814Z,1.23
2023-05-10T16:56:56.472Z,0.93
2023-05-10T16:59:23.922Z,0.70
2023-05-10T17:01:53.192Z,1.27
2023-05-10T17:04:21.142Z,1.95
2023-05-10T17:06:48.563Z,1.30
2023-05-10T17:09:15.969Z,1.55
2023-05-10T17:11:43.702Z,0.93
2023-05-10T17:14:11.382Z,1.05
2023-05-10T17:16:39.010Z,1.62
2023-05-10T17:19:06.966Z,1.67
2023-05-10T17:21:34.544Z,0.88
2023-05-10T17:24:02.035Z,1.20
2023-05-10T17:26:30.146Z,0.88
2023-05-10T17:28:58.619Z,1.17
2023-05-10T17:31:26.063Z,1.20
2023-05-10T17:33:53.811Z,1.67
2023-05-10T17:36:21.218Z,1.27
2023-05-10T17:38:49.011Z,1.33
2023-05-10T17:41:17.170Z,1.10
2023-05-10T17:43:44.750Z,1.35
2023-05-10T17:46:12.977Z,1.33
2023-05-10T17:48:41.865Z,1.85
2023-05-10T17:51:09.555Z,0.95
2023-05-10T17:53:36.904Z,1.12
2023-05-10T17:56:04.748Z,1.67
2023-05-10T17:58:32.161Z,1.40
2023-05-10T18:00:59.557Z,1.23
2023-05-10T18:03:27.225Z,0.88
2023-05-10T18:05:55.352Z,1.60
2023-05-10T18:08:26.728Z,1.50
2023-05-10T18:10:54.430Z,1.45
2023-05-10T18:13:22.294Z,1.40
2023-05-10T18:15:49.893Z,1.37
2023-05-10T18:18:17.754Z,1.90
2023-05-10T18:20:46.379Z,2.12
2023-05-10T18:23:15.337Z,1.77
2023-05-10T18:25:43.164Z,1.52
2023-05-10T18:28:10.755Z,1.42
2023-05-10T18:30:38.453Z,1.50
2023-05-10T18:33:06.750Z,1.62
2023-05-10T18:35:36.801Z,1.45
2023-05-10T18:38:04.464Z,1.15
2023-05-10T18:40:32.359Z,1.55
2023-05-10T18:43:00.123Z,1.33
2023-05-10T18:45:27.509Z,1.15
2023-05-10T18:47:55.533Z,1.42
2023-05-10T18:50:22.997Z,1.77
2023-05-10T18:52:50.689Z,1.85
2023-05-10T18:55:18.723Z,1.73
2023-05-10T18:57:46.726Z,2.05
2023-05-10T19:00:14.341Z,1.75
2023-05-10T19:02:42.103Z,2.25
2023-05-10T19:05:09.932Z,1.67
2023-05-10T19:07:37.531Z,2.17
2023-05-10T19:10:05.799Z,1.92
2023-05-10T19:12:33.402Z,1.48
2023-05-10T19:15:01.163Z,1.27
2023-05-10T19:17:29.029Z,1.65
2023-05-10T19:19:57.657Z,2.08
2023-05-10T19:22:35.300Z,1.70
2023-05-10T19:25:05.879Z,1.55
2023-05-10T19:27:34.114Z,1.45
2023-05-10T19:30:01.746Z,1.75
2023-05-10T19:32:30.048Z,1.45
2023-05-10T19:34:57.645Z,1.33
2023-05-10T19:37:25.632Z,1.27
2023-05-10T19:39:53.428Z,1.30
2023-05-10T19:42:21.179Z,1.52
2023-05-10T19:44:48.893Z,1.02
2023-05-10T19:47:16.995Z,1.90
2023-05-10T19:49:44.688Z,1.30
2023-05-10T19:52:12.450Z,1.37
2023-05-10T19:54:40.164Z,1.33
2023-05-10T19:57:07.745Z,1.15
2023-05-10T19:59:35.473Z,1.00
2023-05-10T20:02:03.190Z,2.12
2023-05-10T20:04:31.389Z,1.45
2023-05-10T20:06:58.942Z,1.55
2023-05-10T20:09:26.722Z,1.65
2023-05-10T20:11:54.461Z,1.37
2023-05-10T20:14:22.344Z,1.73
2023-05-10T20:16:49.919Z,2.03
2023-05-10T20:19:17.935Z,2.17
2023-05-10T20:21:45.392Z,1.27
2023-05-10T20:24:12.966Z,1.58
2023-05-10T20:26:41.035Z,1.33
2023-05-10T20:29:09.404Z,1.62
2023-05-10T20:31:37.165Z,2.10
2023-05-10T20:34:04.887Z,1.55
2023-05-10T20:36:32.607Z,1.48
2023-05-10T20:39:00.055Z,1.95
2023-05-10T20:41:27.978Z,2.28
2023-05-10T20:43:55.401Z,2.35
2023-05-10T20:46:23.614Z,1.73
2023-05-10T20:48:51.376Z,1.87
2023-05-10T20:51:18.848Z,1.40
2023-05-10T20:53:46.220Z,2.40
2023-05-10T20:56:13.905Z,3.05
2023-05-10T20:58:41.314Z,1.85
2023-05-10T21:01:08.893Z,1.62
2023-05-10T21:03:36.604Z,1.65
2023-05-10T21:06:04.050Z,2.17
2023-05-10T21:08:31.448Z,1.85
2023-05-10T21:10:59.358Z,1.83
2023-05-10T21:13:26.775Z,1.83
2023-05-10T21:15:54.239Z,2.35
2023-05-10T21:18:22.205Z,1.77
2023-05-10T21:20:49.753Z,1.42
2023-05-10T21:23:17.325Z,1.75
2023-05-10T21:25:44.989Z,1.50
2023-05-10T21:28:12.365Z,1.77
2023-05-10T21:30:39.756Z,2.10
2023-05-10T21:33:07.532Z,1.62
2023-05-10T21:35:34.924Z,2.47
2023-05-10T21:38:02.354Z,1.37
2023-05-10T21:40:30.047Z,1.10
2023-05-10T21:42:57.832Z,1.17
2023-05-10T21:45:25.323Z,1.58
2023-05-10T21:47:53.013Z,1.73
2023-05-10T21:50:20.532Z,1.48
2023-05-10T21:52:48.163Z,2.25
2023-05-10T21:55:16.040Z,3.72
2023-05-10T21:57:44.809Z,4.95
2023-05-10T22:00:13.575Z,4.65
2023-05-10T22:02:41.265Z,3.65
2023-05-10T22:05:09.114Z,3.58
2023-05-10T22:07:36.634Z,4.18
2023-05-10T22:10:04.552Z,2.30
2023-05-10T22:12:31.920Z,3.78
2023-05-10T22:15:09.500Z,2.92
2023-05-10T22:17:39.917Z,2.85
2023-05-10T22:20:08.960Z,1.75
2023-05-10T22:22:36.820Z,1.25
2023-05-10T22:25:08.618Z,1.50
2023-05-10T22:27:36.010Z,1.42
2023-05-10T22:30:04.100Z,1.40
2023-05-10T22:32:33.854Z,1.58
2023-05-10T22:35:01.241Z,1.33
2023-05-10T22:37:28.953Z,0.80
2023-05-10T22:39:56.634Z,1.27
2023-05-10T22:42:23.993Z,1.73
2023-05-10T22:44:51.411Z,1.30
2023-05-10T22:47:19.059Z,1.65
2023-05-10T22:49:47.048Z,0.95
2023-05-10T22:52:14.426Z,1.00
2023-05-10T22:54:42.039Z,1.80
2023-05-10T22:57:09.494Z,2.05
2023-05-10T22:59:36.915Z,2.00
2023-05-10T23:02:04.733Z,1.37
2023-05-10T23:04:32.628Z,1.25
2023-05-10T23:07:00.057Z,1.27
2023-05-10T23:09:27.695Z,1.75
2023-05-10T23:11:55.096Z,1.27
2023-05-10T23:14:23.515Z,1.67
2023-05-10T23:16:51.214Z,1.23
2023-05-10T23:19:19.167Z,1.90
2023-05-10T23:21:47.158Z,2.20
2023-05-10T23:24:15.059Z,2.12
2023-05-10T23:26:45.193Z,1.55
2023-05-10T23:29:12.639Z,1.37
2023-05-10T23:31:45.453Z,1.65
2023-05-10T23:34:13.003Z,1.83
2023-05-10T23:36:40.901Z,1.40
2023-05-10T23:39:08.413Z,1.48
2023-05-10T23:41:35.799Z,1.37
2023-05-10T23:44:03.523Z,1.17
2023-05-10T23:46:30.923Z,1.62
2023-05-10T23:48:58.361Z,2.17
2023-05-10T23:51:26.103Z,1.42
2023-05-10T23:53:53.454Z,1.73
2023-05-10T23:56:22.128Z,1.77
2023-05-10T23:58:49.809Z,1.40
